createdAt,value
2023-02-02T00:01:48.424Z,6.71
2023-02-02T00:04:18.110Z,6.71
2023-02-02T00:06:45.911Z,6.72
2023-02-02T00:09:14.737Z,6.69
2023-02-02T00:11:43.735Z,6.67
2023-02-02T00:14:10.604Z,6.67
2023-02-02T00:16:40.073Z,6.68
2023-02-02T00:19:13.772Z,6.68
2023-02-02T00:21:40.689Z,6.68
2023-02-02T00:24:09.508Z,6.65
2023-02-02T00:26:37.223Z,6.66
2023-02-02T00:29:05.457Z,6.64
2023-02-02T00:31:32.080Z,6.61
2023-02-02T00:33:58.622Z,6.60
2023-02-02T00:36:25.970Z,6.60
2023-02-02T00:38:53.606Z,6.59
2023-02-02T00:41:20.531Z,6.60
2023-02-02T00:44:07.055Z,6.59
2023-02-02T00:46:33.786Z,6.57
2023-02-02T00:49:00.610Z,6.57
2023-02-02T00:51:27.068Z,6.57
2023-02-02T00:53:53.560Z,6.56
2023-02-02T00:56:20.034Z,6.54
2023-02-02T00:58:46.554Z,6.52
2023-02-02T01:01:17.018Z,6.52
2023-02-02T01:03:44.121Z,6.50
2023-02-02T01:06:10.872Z,6.49
2023-02-02T01:08:37.408Z,6.49
2023-02-02T01:11:04.143Z,6.50
2023-02-02T01:13:30.577Z,6.47
2023-02-02T01:15:58.365Z,6.45
2023-02-02T01:18:26.470Z,6.43
2023-02-02T01:21:00.465Z,6.41
2023-02-02T01:23:27.878Z,6.37
2023-02-02T01:25:55.893Z,6.34
2023-02-02T01:28:23.300Z,6.33
2023-02-02T01:30:50.003Z,6.31
2023-02-02T01:33:17.442Z,6.30
2023-02-02T01:35:54.928Z,6.29
2023-02-02T01:38:24.492Z,6.29
2023-02-02T01:40:56.411Z,6.28
2023-02-02T01:43:43.132Z,6.27
2023-02-02T01:46:22.268Z,6.24
2023-02-02T01:49:00.953Z,6.24
2023-02-02T01:51:38.621Z,6.24
2023-02-02T01:54:08.364Z,6.22
2023-02-02T01:56:41.206Z,6.23
2023-02-02T01:59:08.437Z,6.21
2023-02-02T02:01:34.912Z,6.18
2023-02-02T02:04:01.647Z,6.19
2023-02-02T02:06:28.861Z,6.16
2023-02-02T02:09:03.315Z,6.15
2023-02-02T02:11:30.858Z,6.16
2023-02-02T02:14:17.981Z,6.16
2023-02-02T02:17:37.136Z,6.16
2023-02-02T02:20:52.968Z,6.13
2023-02-02T02:23:50.484Z,6.10
2023-02-02T02:26:35.769Z,6.10
2023-02-02T02:29:19.325Z,6.09
2023-02-02T02:32:19.560Z,6.06
2023-02-02T02:35:05.116Z,6.05
2023-02-02T02:38:11.073Z,6.03
2023-02-02T02:41:01.669Z,6.01
2023-02-02T02:43:37.752Z,6.01
2023-02-02T02:46:05.133Z,6.00
2023-02-02T02:48:31.763Z,6.00
2023-02-02T02:51:28.636Z,6.00
2023-02-02T02:53:56.458Z,6.02
2023-02-02T02:56:34.095Z,6.03
2023-02-02T02:59:06.527Z,6.04
2023-02-02T03:01:51.328Z,6.05
2023-02-02T03:04:25.177Z,6.09
2023-02-02T03:07:00.018Z,6.12
2023-02-02T03:09:32.793Z,6.12
2023-02-02T03:11:59.829Z,6.13
2023-02-02T03:14:26.580Z,6.13
2023-02-02T03:16:53.463Z,6.19
2023-02-02T03:19:20.535Z,6.19
2023-02-02T03:21:47.004Z,6.19
2023-02-02T03:24:13.406Z,6.23
2023-02-02T03:26:40.014Z,6.23
2023-02-02T03:29:06.665Z,6.25
2023-02-02T03:31:33.751Z,6.25
2023-02-02T03:34:00.329Z,6.27
2023-02-02T03:36:27.821Z,6.29
2023-02-02T03:38:54.374Z,6.33
2023-02-02T03:41:20.901Z,6.33
2023-02-02T03:43:47.403Z,6.34
2023-02-02T03:46:13.993Z,6.33
2023-02-02T03:48:40.468Z,6.34
2023-02-02T03:51:12.441Z,6.36
2023-02-02T03:53:47.327Z,6.38
2023-02-02T03:56:14.244Z,6.39
2023-02-02T03:58:40.748Z,6.40
2023-02-02T04:01:11.214Z,6.42
2023-02-02T04:03:38.010Z,6.43
2023-02-02T04:06:04.816Z,6.43
2023-02-02T04:08:31.684Z,6.44
2023-02-02T04:10:58.189Z,6.47
2023-02-02T04:13:24.619Z,6.46
2023-02-02T04:16:01.101Z,6.47
2023-02-02T04:18:28.138Z,6.47
2023-02-02T04:20:59.237Z,6.48
2023-02-02T04:23:26.168Z,6.51
2023-02-02T04:25:53.033Z,6.51
2023-02-02T04:28:19.981Z,6.50
2023-02-02T04:30:48.842Z,6.51
2023-02-02T04:33:15.479Z,6.53
2023-02-02T04:35:44.700Z,6.54
2023-02-02T04:38:11.573Z,6.56
2023-02-02T04:40:39.801Z,6.54
2023-02-02T04:43:06.275Z,6.55
2023-02-02T04:45:33.171Z,6.56
2023-02-02T04:47:59.708Z,6.59
2023-02-02T04:50:26.421Z,6.60
2023-02-02T04:52:52.964Z,6.63
2023-02-02T04:55:19.415Z,6.65
2023-02-02T04:57:45.981Z,6.68
2023-02-02T05:00:13.489Z,6.71
2023-02-02T05:02:40.656Z,6.72
2023-02-02T05:05:11.216Z,6.73
2023-02-02T05:07:37.875Z,6.73
2023-02-02T05:10:04.907Z,6.73
2023-02-02T05:12:31.403Z,6.74
2023-02-02T05:15:00.957Z,6.76
2023-02-02T05:17:27.893Z,6.77
2023-02-02T05:19:54.411Z,6.80
2023-02-02T05:22:20.895Z,6.80
2023-02-02T05:24:47.329Z,6.81
2023-02-02T05:27:13.859Z,6.82
2023-02-02T05:29:40.449Z,6.81
2023-02-02T05:32:06.951Z,6.79
2023-02-02T05:34:33.540Z,6.79
2023-02-02T05:36:59.984Z,6.81
2023-02-02T05:39:26.523Z,6.80
2023-02-02T05:41:52.968Z,6.80
2023-02-02T05:44:19.433Z,6.80
2023-02-02T05:46:45.946Z,6.80
2023-02-02T05:49:15.506Z,6.80
2023-02-02T05:51:47.597Z,6.80
2023-02-02T05:54:19.176Z,6.81
2023-02-02T05:56:47.345Z,6.80
2023-02-02T05:59:14.216Z,6.80
2023-02-02T06:01:40.702Z,6.78
2023-02-02T06:04:07.161Z,6.79
2023-02-02T06:06:35.461Z,6.78
2023-02-02T06:09:02.465Z,6.76
2023-02-02T06:11:29.021Z,6.75
2023-02-02T06:13:55.919Z,6.75
2023-02-02T06:16:22.382Z,6.74
2023-02-02T06:18:48.836Z,6.72
2023-02-02T06:21:15.539Z,6.71
2023-02-02T06:23:45.651Z,6.69
2023-02-02T06:26:13.589Z,6.68
2023-02-02T06:28:40.013Z,6.68
2023-02-02T06:31:11.789Z,6.67
2023-02-02T06:33:38.273Z,6.67
2023-02-02T06:36:07.298Z,6.65
2023-02-02T06:38:33.770Z,6.65
2023-02-02T06:41:01.589Z,6.64
2023-02-02T06:43:29.208Z,6.64
2023-02-02T06:45:57.775Z,6.65
2023-02-02T06:48:24.552Z,6.64
2023-02-02T06:50:51.076Z,6.63
2023-02-02T06:53:22.901Z,6.62
2023-02-02T06:55:56.149Z,6.61
2023-02-02T06:58:22.744Z,6.61
2023-02-02T07:00:49.421Z,6.61
2023-02-02T07:03:16.840Z,6.61
2023-02-02T07:05:43.340Z,6.60
2023-02-02T07:08:09.857Z,6.60
2023-02-02T07:11:13.923Z,6.60
2023-02-02T07:13:24.582Z,6.59
2023-02-02T07:15:51.052Z,6.59
2023-02-02T07:18:17.727Z,6.59
2023-02-02T07:20:44.175Z,6.57
2023-02-02T07:23:10.788Z,6.58
2023-02-02T07:25:37.320Z,6.57
2023-02-02T07:28:04.073Z,6.57
2023-02-02T07:30:30.700Z,6.56
2023-02-02T07:32:57.369Z,6.56
2023-02-02T07:35:24.351Z,6.56
2023-02-02T07:37:55.138Z,6.56
2023-02-02T07:40:22.033Z,6.58
2023-02-02T07:42:48.931Z,6.59
2023-02-02T07:45:27.586Z,6.59
2023-02-02T07:47:58.763Z,6.61
2023-02-02T07:50:26.623Z,6.61
2023-02-02T07:52:53.286Z,6.61
2023-02-02T07:55:20.154Z,6.62
2023-02-02T07:57:46.883Z,6.64
2023-02-02T08:00:13.929Z,6.65
2023-02-02T08:02:40.570Z,6.66
2023-02-02T08:05:07.454Z,6.67
2023-02-02T08:07:35.018Z,6.69
2023-02-02T08:10:01.631Z,6.71
2023-02-02T08:12:28.295Z,6.73
2023-02-02T08:14:54.860Z,6.77
2023-02-02T08:17:22.946Z,6.79
2023-02-02T08:19:49.412Z,6.81
2023-02-02T08:22:16.024Z,6.81
2023-02-02T08:24:43.316Z,6.81
2023-02-02T08:27:10.258Z,6.82
2023-02-02T08:29:38.312Z,6.82
2023-02-02T08:32:05.366Z,6.83
2023-02-02T08:34:34.751Z,6.83
2023-02-02T08:37:01.183Z,6.85
2023-02-02T08:39:27.743Z,6.88
2023-02-02T08:41:57.891Z,6.90
2023-02-02T08:44:26.996Z,6.93
2023-02-02T08:47:06.319Z,6.96
2023-02-02T08:49:33.409Z,7.00
2023-02-02T08:52:03.044Z,7.02
2023-02-02T08:54:29.568Z,7.04
2023-02-02T08:56:56.728Z,7.08
2023-02-02T08:59:23.170Z,7.12
2023-02-02T09:01:49.675Z,7.16
2023-02-02T09:04:16.544Z,7.23
2023-02-02T09:06:43.823Z,7.27
2023-02-02T09:09:14.281Z,7.32
2023-02-02T09:11:41.551Z,7.35
2023-02-02T09:14:10.189Z,7.37
2023-02-02T09:16:36.905Z,7.40
2023-02-02T09:19:04.088Z,7.44
2023-02-02T09:21:30.905Z,7.47
2023-02-02T09:23:57.371Z,7.53
2023-02-02T09:26:29.259Z,7.57
2023-02-02T09:29:04.311Z,7.62
2023-02-02T09:31:34.003Z,7.65
2023-02-02T09:34:05.892Z,7.68
2023-02-02T09:36:32.366Z,7.71
2023-02-02T09:38:59.314Z,7.69
2023-02-02T09:41:38.051Z,7.69
2023-02-02T09:44:25.645Z,7.70
2023-02-02T09:47:20.334Z,7.75
2023-02-02T09:49:55.119Z,7.72
2023-02-02T09:52:39.536Z,7.72
2023-02-02T09:55:15.882Z,7.68
2023-02-02T09:58:18.674Z,7.65
2023-02-02T10:00:53.904Z,7.64
2023-02-02T10:03:27.640Z,7.65
2023-02-02T10:06:04.428Z,7.72
2023-02-02T10:08:46.550Z,7.77
2023-02-02T10:11:39.296Z,7.80
2023-02-02T10:14:18.390Z,7.81
2023-02-02T10:16:48.379Z,7.80
2023-02-02T10:19:15.701Z,7.77
2023-02-02T10:22:06.513Z,7.76
2023-02-02T10:24:35.745Z,7.79
2023-02-02T10:27:11.827Z,7.85
2023-02-02T10:30:01.691Z,7.92
2023-02-02T10:32:34.997Z,7.94
2023-02-02T10:35:16.600Z,7.96
2023-02-02T10:38:14.030Z,8.04
2023-02-02T10:40:51.523Z,8.08
2023-02-02T10:43:50.425Z,8.08
2023-02-02T10:46:25.451Z,8.09
2023-02-02T10:49:10.933Z,8.12
2023-02-02T10:51:38.018Z,8.12
2023-02-02T10:54:16.748Z,8.09
2023-02-02T10:56:52.577Z,8.07
2023-02-02T10:59:27.634Z,8.06
2023-02-02T11:01:54.126Z,8.06
2023-02-02T11:04:41.398Z,8.03
2023-02-02T11:07:07.887Z,8.02
2023-02-02T11:09:41.095Z,8.01
2023-02-02T11:12:20.602Z,8.01
2023-02-02T11:14:52.296Z,8.04
2023-02-02T11:17:26.347Z,8.07
2023-02-02T11:19:55.631Z,8.07
2023-02-02T11:22:25.404Z,8.08
2023-02-02T11:24:53.755Z,8.11
2023-02-02T11:27:46.758Z,8.14
2023-02-02T11:30:37.196Z,8.17
2023-02-02T11:33:39.002Z,8.22
2023-02-02T11:36:18.658Z,8.23
2023-02-02T11:38:45.221Z,8.26
2023-02-02T11:41:14.324Z,8.24
2023-02-02T11:43:49.165Z,8.22
2023-02-02T11:46:21.936Z,8.20
2023-02-02T11:48:54.465Z,8.21
2023-02-02T11:51:24.558Z,8.25
2023-02-02T11:54:00.843Z,8.30
2023-02-02T11:56:27.721Z,8.29
2023-02-02T11:58:56.519Z,8.27
2023-02-02T12:01:39.861Z,8.25
2023-02-02T12:04:15.569Z,8.25
2023-02-02T12:06:42.093Z,8.27
2023-02-02T12:09:19.168Z,8.25
2023-02-02T12:12:11.575Z,8.29
2023-02-02T12:14:56.886Z,8.24
2023-02-02T12:17:45.303Z,8.23
2023-02-02T12:20:15.016Z,8.22
2023-02-02T12:22:49.221Z,8.18
2023-02-02T12:25:46.595Z,8.17
2023-02-02T12:28:31.427Z,8.18
2023-02-02T12:31:38.807Z,8.14
2023-02-02T12:34:27.233Z,8.14
2023-02-02T12:37:03.243Z,8.14
2023-02-02T12:40:06.716Z,8.10
2023-02-02T12:42:41.143Z,8.09
2023-02-02T12:45:10.596Z,8.06
2023-02-02T12:47:43.292Z,8.07
2023-02-02T12:50:27.583Z,8.08
2023-02-02T12:53:34.960Z,8.11
2023-02-02T12:56:07.508Z,8.08
2023-02-02T12:59:00.303Z,8.06
2023-02-02T13:01:50.721Z,8.04
2023-02-02T13:07:24.735Z,8.01
2023-02-02T13:09:58.492Z,7.96
2023-02-02T13:12:28.197Z,7.91
2023-02-02T13:14:57.962Z,7.88
2023-02-02T13:17:40.040Z,7.85
2023-02-02T13:20:24.330Z,7.85
2023-02-02T13:22:56.381Z,7.82
2023-02-02T13:25:34.524Z,7.83
2023-02-02T13:28:03.346Z,7.81
2023-02-02T13:30:39.748Z,7.81
2023-02-02T13:33:15.772Z,7.75
2023-02-02T13:35:55.814Z,7.75
2023-02-02T13:38:30.501Z,7.69
2023-02-02T13:41:03.868Z,7.68
2023-02-02T13:43:56.819Z,7.68
2023-02-02T13:46:48.048Z,7.64
2023-02-02T13:49:28.866Z,7.65
2023-02-02T13:52:18.708Z,7.64
2023-02-02T13:55:32.027Z,7.62
2023-02-02T13:58:13.331Z,7.63
2023-02-02T14:00:56.964Z,7.66
2023-02-02T14:03:38.360Z,7.68
2023-02-02T14:06:15.739Z,7.68
2023-02-02T14:08:52.669Z,7.69
2023-02-02T14:11:29.751Z,7.72
2023-02-02T14:14:32.019Z,7.69
2023-02-02T14:17:19.331Z,7.69
2023-02-02T14:20:06.476Z,7.68
2023-02-02T14:22:40.801Z,7.71
2023-02-02T14:25:28.903Z,7.69
2023-02-02T14:28:38.279Z,7.68
2023-02-02T14:31:27.061Z,7.65
2023-02-02T14:34:35.306Z,7.63
2023-02-02T14:37:20.436Z,7.64
2023-02-02T14:40:17.288Z,7.61
2023-02-02T14:43:33.181Z,7.60
2023-02-02T14:46:33.610Z,7.59
2023-02-02T14:49:00.014Z,7.56
2023-02-02T14:51:29.548Z,7.52
2023-02-02T14:54:01.036Z,7.50
2023-02-02T14:56:49.652Z,7.47
2023-02-02T14:59:20.213Z,7.48
2023-02-02T15:01:59.397Z,7.46
2023-02-02T15:04:27.806Z,7.45
2023-02-02T15:06:55.590Z,7.43
2023-02-02T15:09:26.466Z,7.46
2023-02-02T15:12:01.183Z,7.45
2023-02-02T15:14:56.513Z,7.45
2023-02-02T15:17:24.209Z,7.44
2023-02-02T15:20:05.305Z,7.43
2023-02-02T15:22:37.374Z,7.42
2023-02-02T15:25:13.635Z,7.41
2023-02-02T15:27:56.636Z,7.43
2023-02-02T15:30:25.765Z,7.43
2023-02-02T15:32:52.854Z,7.42
2023-02-02T15:35:28.651Z,7.43
2023-02-02T15:38:00.628Z,7.45
2023-02-02T15:40:30.151Z,7.46
2023-02-02T15:43:04.372Z,7.49
2023-02-02T15:45:37.887Z,7.50
2023-02-02T15:48:30.123Z,7.50
2023-02-02T15:51:03.315Z,7.50
2023-02-02T15:53:45.846Z,7.50
2023-02-02T15:56:24.564Z,7.49
2023-02-02T15:58:53.732Z,7.47
2023-02-02T16:01:23.101Z,7.44
2023-02-02T16:03:57.265Z,7.44
2023-02-02T16:06:23.890Z,7.44
2023-02-02T16:08:50.448Z,7.45
2023-02-02T16:11:20.467Z,7.43
2023-02-02T16:14:05.033Z,7.44
2023-02-02T16:16:41.095Z,7.45
2023-02-02T16:19:25.166Z,7.43
2023-02-02T16:22:14.317Z,7.43
2023-02-02T16:24:46.658Z,7.42
2023-02-02T16:27:19.407Z,7.39
2023-02-02T16:29:46.306Z,7.40
2023-02-02T16:32:30.746Z,7.39
2023-02-02T16:34:58.262Z,7.38
2023-02-02T16:37:31.977Z,7.35
2023-02-02T16:40:27.841Z,7.34
2023-02-02T16:43:19.977Z,7.32
2023-02-02T16:45:50.570Z,7.31
2023-02-02T16:48:20.010Z,7.31
2023-02-02T16:50:48.791Z,7.30
2023-02-02T16:53:23.835Z,7.31
2023-02-02T16:55:51.723Z,7.29
2023-02-02T16:58:21.466Z,7.26
2023-02-02T17:01:14.973Z,7.26
2023-02-02T17:03:51.516Z,7.26
2023-02-02T17:06:29.581Z,7.27
2023-02-02T17:09:14.549Z,7.25
2023-02-02T17:11:55.681Z,7.25
2023-02-02T17:14:32.985Z,7.25
2023-02-02T17:17:00.188Z,7.24
2023-02-02T17:19:29.523Z,7.23
2023-02-02T17:21:57.662Z,7.23
2023-02-02T17:24:24.184Z,7.23
2023-02-02T17:26:50.858Z,7.23
2023-02-02T17:29:19.651Z,7.23
2023-02-02T17:31:46.248Z,7.23
2023-02-02T17:34:16.954Z,7.24
2023-02-02T17:36:43.792Z,7.23
2023-02-02T17:39:11.704Z,7.23
2023-02-02T17:41:39.121Z,7.23
2023-02-02T17:44:06.779Z,7.24
2023-02-02T17:46:33.407Z,7.24
2023-02-02T17:49:00.151Z,7.26
2023-02-02T17:51:26.625Z,7.25
2023-02-02T17:53:55.377Z,7.25
2023-02-02T17:56:22.032Z,7.26
2023-02-02T17:58:48.811Z,7.25
2023-02-02T18:01:15.319Z,7.25
2023-02-02T18:03:45.798Z,7.26
2023-02-02T18:06:12.652Z,7.25
2023-02-02T18:08:39.144Z,7.26
2023-02-02T18:11:05.741Z,7.25
2023-02-02T18:13:32.531Z,7.25
2023-02-02T18:15:59.576Z,7.26
2023-02-02T18:18:27.305Z,7.26
2023-02-02T18:20:53.838Z,7.27
2023-02-02T18:23:20.417Z,7.26
2023-02-02T18:25:47.054Z,7.28
2023-02-02T18:28:17.105Z,7.28
2023-02-02T18:30:47.109Z,7.28
2023-02-02T18:33:19.492Z,7.30
2023-02-02T18:35:47.288Z,7.30
2023-02-02T18:38:14.680Z,7.29
2023-02-02T18:40:41.419Z,7.31
2023-02-02T18:43:07.892Z,7.30
2023-02-02T18:45:35.586Z,7.31
2023-02-02T18:48:02.079Z,7.31
2023-02-02T18:50:28.610Z,7.32
2023-02-02T18:52:56.610Z,7.31
2023-02-02T18:55:23.200Z,7.31
2023-02-02T18:57:49.755Z,7.31
2023-02-02T19:00:16.721Z,7.30
2023-02-02T19:02:43.226Z,7.30
2023-02-02T19:05:28.577Z,7.28
2023-02-02T19:07:55.196Z,7.28
2023-02-02T19:10:23.597Z,7.28
2023-02-02T19:13:10.444Z,7.26
2023-02-02T19:15:39.284Z,7.25
2023-02-02T19:18:14.020Z,7.24
2023-02-02T19:20:41.127Z,7.20
2023-02-02T19:23:29.333Z,7.17
2023-02-02T19:25:56.095Z,7.12
2023-02-02T19:28:25.358Z,7.08
2023-02-02T19:30:53.570Z,7.03
2023-02-02T19:33:20.776Z,7.01
2023-02-02T19:35:52.267Z,6.99
2023-02-02T19:38:20.545Z,6.97
2023-02-02T19:40:47.856Z,6.98
2023-02-02T19:43:25.730Z,6.96
2023-02-02T19:45:53.456Z,6.95
2023-02-02T19:48:24.108Z,6.94
2023-02-02T19:50:50.526Z,6.93
2023-02-02T19:53:28.138Z,6.92
2023-02-02T19:55:54.637Z,6.90
2023-02-02T19:58:26.562Z,6.88
2023-02-02T20:00:55.653Z,6.87
2023-02-02T20:03:35.979Z,6.85
2023-02-02T20:06:04.231Z,6.84
2023-02-02T20:08:40.103Z,6.84
2023-02-02T20:11:41.274Z,6.83
2023-02-02T20:14:22.877Z,6.84
2023-02-02T20:16:56.758Z,6.83
2023-02-02T20:19:26.324Z,6.84
2023-02-02T20:21:53.580Z,6.85
2023-02-02T20:24:37.738Z,6.86
2023-02-02T20:27:21.598Z,6.87
2023-02-02T20:29:50.647Z,6.88
2023-02-02T20:32:39.448Z,6.90
2023-02-02T20:35:37.035Z,6.92
2023-02-02T20:38:24.342Z,6.94
2023-02-02T20:40:52.140Z,6.94
2023-02-02T20:43:19.080Z,6.94
2023-02-02T20:45:45.629Z,6.94
2023-02-02T20:48:12.388Z,6.93
2023-02-02T20:50:40.230Z,6.97
2023-02-02T20:53:06.701Z,7.01
2023-02-02T20:55:35.980Z,7.02
2023-02-02T20:58:04.110Z,7.06
2023-02-02T21:00:31.903Z,7.09
2023-02-02T21:02:58.523Z,7.13
2023-02-02T21:05:25.500Z,7.16
2023-02-02T21:07:54.810Z,7.20
2023-02-02T21:10:23.478Z,7.22
2023-02-02T21:12:51.951Z,7.25
2023-02-02T21:15:19.120Z,7.27
2023-02-02T21:17:45.764Z,7.30
2023-02-02T21:20:14.553Z,7.31
2023-02-02T21:22:41.038Z,7.32
2023-02-02T21:25:08.445Z,7.33
2023-02-02T21:27:35.638Z,7.35
2023-02-02T21:30:02.333Z,7.38
2023-02-02T21:32:28.813Z,7.40
2023-02-02T21:34:55.281Z,7.44
2023-02-02T21:37:21.771Z,7.46
2023-02-02T21:39:49.441Z,7.47
2023-02-02T21:42:21.577Z,7.47
2023-02-02T21:45:07.304Z,7.49
2023-02-02T21:47:45.403Z,7.51
2023-02-02T21:50:29.829Z,7.53
2023-02-02T21:53:17.175Z,7.56
2023-02-02T21:55:46.074Z,7.56
2023-02-02T21:58:35.953Z,7.57
2023-02-02T22:01:23.756Z,7.60
2023-02-02T22:03:50.936Z,7.60
2023-02-02T22:06:23.588Z,7.62
2023-02-02T22:08:50.778Z,7.63
2023-02-02T22:11:31.208Z,7.66
2023-02-02T22:14:31.568Z,7.69
2023-02-02T22:16:59.116Z,7.72
2023-02-02T22:19:38.498Z,7.73
2023-02-02T22:22:20.238Z,7.76
2023-02-02T22:24:55.685Z,7.79
2023-02-02T22:27:25.117Z,7.81
2023-02-02T22:30:00.541Z,7.84
2023-02-02T22:32:27.045Z,7.85
2023-02-02T22:34:53.531Z,7.85
2023-02-02T22:37:20.058Z,7.85
2023-02-02T22:39:46.586Z,7.86
2023-02-02T22:42:13.037Z,7.86
2023-02-02T22:44:39.501Z,7.86
2023-02-02T22:47:05.984Z,7.85
2023-02-02T22:49:32.448Z,7.85
2023-02-02T22:51:58.918Z,7.87
2023-02-02T22:54:25.434Z,7.87
2023-02-02T22:56:51.888Z,7.86
2023-02-02T22:59:18.320Z,7.86
2023-02-02T23:01:44.752Z,7.85
2023-02-02T23:04:11.586Z,7.85
2023-02-02T23:06:38.033Z,7.86
2023-02-02T23:09:04.483Z,7.86
2023-02-02T23:11:30.917Z,7.85
2023-02-02T23:13:57.431Z,7.84
2023-02-02T23:16:23.957Z,7.83
2023-02-02T23:18:50.497Z,7.83
2023-02-02T23:21:17.384Z,7.80
2023-02-02T23:23:43.817Z,7.80
2023-02-02T23:26:10.389Z,7.81
2023-02-02T23:28:36.810Z,7.83
2023-02-02T23:31:03.702Z,7.83
2023-02-02T23:33:31.095Z,7.83
2023-02-02T23:35:57.675Z,7.83
2023-02-02T23:38:24.150Z,7.84
2023-02-02T23:40:50.629Z,7.85
2023-02-02T23:43:17.133Z,7.87
2023-02-02T23:45:43.749Z,7.88
2023-02-02T23:48:10.489Z,7.89
2023-02-02T23:50:40.124Z,7.91
2023-02-02T23:53:08.889Z,7.92
2023-02-02T23:55:35.624Z,7.93
2023-02-02T23:58:02.665Z,7.92
